Time;durP1;ratioP1;P1;durP2;ratioP2;P2;SDS_P1;SDS_P2;PMS_P1;PMS_P2;Temp;Humidity;BMP_temperature;BMP_pressure;BME280_temperature;BME280_humidity;BME280_pressure;Samples;Min_cycle;Max_cycle;Signal;HPM_P1;HPM_P2
2022/09/05 00:02:02;;;;;;;10.23;4.70;;;;;;;12.32;100.00;98807.69;5085174;28;20123;-68
2022/09/05 00:04:52;;;;;;;12.98;5.47;;;;;;;12.44;100.00;98806.53;5084831;28;20024;-68
2022/09/05 00:07:26;;;;;;;9.20;4.75;;;;;;;12.44;100.00;98807.38;5085192;28;20339;-68
2022/09/05 00:09:54;;;;;;;8.23;4.35;;;;;;;12.39;100.00;98803.09;5084715;28;20055;-68
2022/09/05 00:12:21;;;;;;;6.28;4.50;;;;;;;12.40;100.00;98808.34;5084939;28;20035;-68
2022/09/05 00:15:16;;;;;;;7.13;4.53;;;;;;;12.40;100.00;98805.72;5084874;28;20283;-68
2022/09/05 00:18:10;;;;;;;10.95;4.07;;;;;;;12.25;100.00;98802.56;5085183;28;20054;-68
2022/09/05 00:21:03;;;;;;;9.85;4.10;;;;;;;12.23;100.00;98799.97;5084792;28;20100;-68
2022/09/05 00:24:05;;;;;;;10.70;4.80;;;;;;;12.20;100.00;98805.31;5084533;28;20024;-68
2022/09/05 00:26:46;;;;;;;;;;;;;;;12.25;100.00;98806.06;5085689;28;20028;-68
2022/09/05 00:29:25;;;;;;;5.85;4.00;;;;;;;12.27;100.00;98809.53;5084130;28;19908;-68
2022/09/05 00:31:51;;;;;;;9.35;4.65;;;;;;;12.28;100.00;98805.16;5084616;28;20227;-68
2022/09/05 00:34:46;;;;;;;7.47;4.50;;;;;;;12.21;100.00;98809.69;5084712;28;20025;-68
2022/09/05 00:37:26;;;;;;;8.93;4.68;;;;;;;12.19;100.00;98808.00;5084913;28;20029;-68
2022/09/05 00:39:55;;;;;;;8.80;5.10;;;;;;;12.15;100.00;98804.53;5084925;28;20052;-68
2022/09/05 00:42:21;;;;;;;7.45;4.80;;;;;;;12.17;100.00;98808.03;5084738;28;20031;-68
2022/09/05 00:44:54;;;;;;;11.48;4.32;;;;;;;12.01;100.00;98801.38;5084832;28;20025;-68
2022/09/05 00:48:06;;;;;;;6.97;4.60;;;;;;;12.06;100.00;98794.19;5084929;28;20016;-68
2022/09/05 00:51:01;;;;;;;8.05;4.85;;;;;;;12.06;100.00;98802.09;5078879;28;20032;-68
2022/09/05 00:53:43;;;;;;;8.05;4.60;;;;;;;11.99;100.00;98803.16;5084501;28;20064;-68
2022/09/05 00:56:39;;;;;;;13.13;4.95;;;;;;;12.02;100.00;98811.00;5084296;28;20031;-68
2022/09/05 00:59:25;;;;;;;9.27;4.35;;;;;;;12.03;100.00;98802.22;5084318;28;20040;-68
2022/09/05 01:02:08;;;;;;;5.68;4.10;;;;;;;12.03;100.00;98799.56;5083819;28;20027;-68
2022/09/05 01:04:47;;;;;;;;;;;;;;;11.97;100.00;98815.53;5084157;28;20028;-68
2022/09/05 01:07:55;;;;;;;8.98;4.53;;;;;;;11.93;100.00;98813.00;5083680;28;19943;-68
2022/09/05 01:10:32;;;;;;;6.68;4.35;;;;;;;11.98;100.00;98811.97;5082028;28;20039;-68
2022/09/05 01:13:14;;;;;;;8.73;4.38;;;;;;;11.99;100.00;98805.78;5083348;28;20240;-68
2022/09/05 01:16:36;;;;;;;6.03;3.95;;;;;;;11.92;100.00;98812.13;5083835;28;20251;-68
2022/09/05 01:19:07;;;;;;;8.07;4.07;;;;;;;11.96;100.00;98803.22;5022072;28;20029;-68
2022/09/05 01:21:39;;;;;;;9.75;4.50;;;;;;;11.91;100.00;98807.75;5020101;28;20244;-68
2022/09/05 01:24:22;;;;;;;9.55;3.55;;;;;;;11.77;100.00;98803.66;5035313;28;20028;-68
2022/09/05 01:27:15;;;;;;;6.30;4.22;;;;;;;11.78;100.00;98803.66;5063420;28;20017;-68
2022/09/05 01:29:49;;;;;;;8.05;4.75;;;;;;;11.71;100.00;98801.16;5063351;28;20201;-68
2022/09/05 01:32:29;;;;;;;11.32;4.80;;;;;;;11.73;100.00;98810.78;5063361;28;20044;-68
2022/09/05 01:35:26;;;;;;;6.65;4.00;;;;;;;11.79;100.00;98801.84;5063317;28;20025;-68
2022/09/05 01:37:57;;;;;;;7.90;4.15;;;;;;;11.70;100.00;98802.94;5042621;28;20151;-68
2022/09/05 01:40:33;;;;;;;6.60;4.45;;;;;;;11.69;100.00;98797.69;5065480;28;20025;-68
2022/09/05 01:43:39;;;;;;;6.45;3.97;;;;;;;11.73;100.00;98800.22;5081834;28;20029;-68
2022/09/05 01:46:27;;;;;;;9.32;4.70;;;;;;;11.67;100.00;98802.97;5086986;28;20021;-68
2022/09/05 01:49:07;;;;;;;5.57;3.95;;;;;;;11.64;100.00;98805.69;5086894;28;20096;-68
2022/09/05 01:51:54;;;;;;;9.57;3.88;;;;;;;11.75;100.00;98808.09;5086887;28;20024;-68
2022/09/05 01:54:35;;;;;;;7.32;4.60;;;;;;;11.85;100.00;98805.25;5086761;28;20061;-68
2022/09/05 01:57:15;;;;;;;13.20;4.90;;;;;;;11.87;100.00;98798.13;5086671;28;20024;-68
2022/09/05 02:00:03;;;;;;;10.02;4.22;;;;;;;11.80;100.00;98804.47;5086664;28;20024;-68
2022/09/05 02:02:52;;;;;;;6.70;3.97;;;;;;;11.83;100.00;98800.91;5086717;28;20017;-68
2022/09/05 02:05:50;;;;;;;8.52;4.38;;;;;;;11.96;100.00;98811.13;5086847;28;20020;-68
2022/09/05 02:08:32;;;;;;;14.32;4.20;;;;;;;11.93;100.00;98807.72;5074638;28;20032;-68
2022/09/05 02:11:10;;;;;;;6.63;3.90;;;;;;;11.87;100.00;98808.69;5086222;28;20047;-68
2022/09/05 02:13:35;;;;;;;8.27;4.25;;;;;;;11.84;100.00;98814.06;5086663;28;20245;-68
2022/09/05 02:16:19;;;;;;;6.78;4.10;;;;;;;11.93;100.00;98813.84;5086351;28;20267;-68
2022/09/05 02:19:05;;;;;;;7.07;3.90;;;;;;;11.97;100.00;98814.66;5086362;28;20028;-68
2022/09/05 02:21:37;;;;;;;6.88;3.85;;;;;;;11.99;100.00;98812.88;5086345;28;20031;-68
2022/09/05 02:24:02;;;;;;;13.87;4.47;;;;;;;12.07;100.00;98808.25;5086049;28;20028;-68
2022/09/05 02:26:42;;;;;;;5.97;3.72;;;;;;;12.14;100.00;98797.53;5086141;28;20319;-68
2022/09/05 02:29:13;;;;;;;6.65;4.45;;;;;;;12.19;100.00;98800.97;5086235;28;20028;-68
2022/09/05 02:31:38;;;;;;;10.10;4.22;;;;;;;12.14;100.00;98794.91;5086182;28;20020;-68
2022/09/05 02:34:18;;;;;;;7.80;4.57;;;;;;;11.91;100.00;98804.22;5086105;28;20031;-68
2022/09/05 02:36:50;;;;;;;7.30;4.35;;;;;;;11.92;100.00;98801.56;5085946;28;20032;-68
2022/09/05 02:39:33;;;;;;;9.40;4.65;;;;;;;12.01;100.00;98801.38;5086046;28;20350;-68
2022/09/05 02:42:17;;;;;;;8.60;3.60;;;;;;;12.03;100.00;98802.22;5085765;28;20100;-68
2022/09/05 02:44:48;;;;;;;9.23;3.83;;;;;;;12.00;100.00;98794.34;5085818;28;20249;-68
2022/09/05 02:47:23;;;;;;;13.18;4.85;;;;;;;11.99;100.00;98792.59;5085612;28;20031;-68
2022/09/05 02:49:57;;;;;;;8.38;4.47;;;;;;;11.98;100.00;98796.16;5086652;28;20020;-68
2022/09/05 02:52:25;;;;;;;13.32;4.72;;;;;;;11.83;100.00;98791.22;5085791;28;20062;-68
2022/09/05 02:54:54;;;;;;;9.27;4.35;;;;;;;11.86;100.00;98796.41;5086841;28;20028;-68
2022/09/05 02:57:28;;;;;;;8.77;4.10;;;;;;;11.88;100.00;98797.25;5086630;28;20016;-68
2022/09/05 03:00:17;;;;;;;6.97;4.25;;;;;;;11.91;100.00;98799.84;5086195;28;20020;-68
2022/09/05 03:02:57;;;;;;;9.30;4.45;;;;;;;11.89;100.00;98801.63;5086543;28;20028;-68
2022/09/05 03:05:34;;;;;;;8.45;4.57;;;;;;;11.74;100.00;98794.03;5086588;28;20247;-68
2022/09/05 03:08:24;;;;;;;6.55;4.03;;;;;;;11.64;100.00;98795.13;5086455;28;20020;-68
2022/09/05 03:11:24;;;;;;;6.22;4.18;;;;;;;11.56;100.00;98791.78;5086333;28;20248;-68
2022/09/05 03:14:20;;;;;;;6.18;4.30;;;;;;;11.62;100.00;98796.97;5086026;28;20024;-68
2022/09/05 03:17:21;;;;;;;7.20;4.32;;;;;;;11.68;100.00;98802.06;5086116;28;20024;-68
2022/09/05 03:20:28;;;;;;;6.28;4.45;;;;;;;11.69;100.00;98798.56;5052578;28;20059;-68
2022/09/05 03:22:56;;;;;;;11.27;4.72;;;;;;;11.58;100.00;98800.50;5057643;28;20044;-68
2022/09/05 03:25:36;;;;;;;6.38;3.85;;;;;;;11.56;100.00;98802.31;5086058;28;20028;-68
2022/09/05 03:28:39;;;;;;;6.90;4.30;;;;;;;11.57;100.00;98793.50;5086198;28;20058;-68
2022/09/05 03:31:39;;;;;;;8.57;4.63;;;;;;;11.62;100.00;98790.81;5086346;28;20029;-68
2022/09/05 03:34:39;;;;;;;6.68;4.00;;;;;;;11.60;100.00;98797.84;5066322;28;20029;-68
2022/09/05 03:37:04;;;;;;;9.05;4.32;;;;;;;11.46;100.00;98800.78;5066290;28;20032;-68
2022/09/05 03:40:02;;;;;;;6.65;4.40;;;;;;;11.43;100.00;98800.84;5066047;28;20048;-68
2022/09/05 03:42:35;;;;;;;15.20;4.50;;;;;;;11.38;100.00;98799.16;5065610;28;20035;-68
2022/09/05 03:45:19;;;;;;;5.13;3.72;;;;;;;11.42;100.00;98798.22;5066405;28;20052;-68
2022/09/05 03:47:57;;;;;;;13.25;4.88;;;;;;;11.27;100.00;98799.41;5066118;28;20025;-68
2022/09/05 03:51:12;;;;;;;13.10;4.47;;;;;;;11.22;100.00;98801.25;5066392;28;20392;-68
2022/09/05 03:54:21;;;;;;;11.02;4.68;;;;;;;11.31;100.00;98806.34;5020457;28;20221;-68
2022/09/05 03:57:18;;;;;;;8.95;4.82;;;;;;;11.36;100.00;98808.88;5066569;28;20024;-68
2022/09/05 04:00:05;;;;;;;8.88;4.55;;;;;;;11.36;100.00;98809.75;5085302;28;20024;-68
2022/09/05 04:02:37;;;;;;;7.30;4.50;;;;;;;11.37;100.00;98822.03;5086644;28;20021;-67
2022/09/05 04:05:17;;;;;;;7.45;4.72;;;;;;;11.37;100.00;98814.13;5087285;28;20024;-67
2022/09/05 04:07:48;;;;;;;9.02;4.22;;;;;;;11.21;100.00;98810.06;5086057;28;20074;-72
2022/09/05 04:10:26;;;;;;;6.45;4.35;;;;;;;11.20;100.00;98808.28;5083583;28;20264;-71
2022/09/05 04:13:14;;;;;;;9.32;4.57;;;;;;;11.13;100.00;98811.94;5084232;28;20077;-71
2022/09/05 04:15:44;;;;;;;10.50;4.10;;;;;;;11.09;100.00;98810.28;5084225;28;20101;-71
2022/09/05 04:18:18;;;;;;;6.22;4.38;;;;;;;11.18;100.00;98815.38;5084172;28;20316;-71
2022/09/05 04:20:48;;;;;;;7.78;4.55;;;;;;;11.22;100.00;98817.06;5084130;28;20102;-71
2022/09/05 04:23:16;;;;;;;8.07;4.60;;;;;;;11.22;100.00;98824.97;5084136;28;20062;-71
2022/09/05 04:26:03;;;;;;;8.77;4.15;;;;;;;11.21;100.00;98817.97;5084115;28;20021;-71
2022/09/05 04:28:36;;;;;;;6.50;4.18;;;;;;;11.19;100.00;98822.38;5084045;28;20065;-71
2022/09/05 04:31:24;;;;;;;8.00;4.55;;;;;;;11.14;100.00;98821.63;5084107;28;20025;-71
2022/09/05 04:33:53;;;;;;;8.68;4.03;;;;;;;11.11;100.00;98824.31;5083624;28;20032;-71
2022/09/05 04:36:27;;;;;;;9.70;4.65;;;;;;;11.16;100.00;98827.69;5083871;28;20062;-71
2022/09/05 04:39:17;;;;;;;5.85;3.88;;;;;;;11.04;100.00;98827.91;5083950;28;20016;-71
2022/09/05 04:41:54;;;;;;;6.82;4.47;;;;;;;10.95;100.00;98820.22;5083974;28;20069;-71
2022/09/05 04:44:26;;;;;;;10.15;4.72;;;;;;;10.98;100.00;98818.38;5083938;28;20021;-71
2022/09/05 04:46:56;;;;;;;;;;;;;;;10.97;100.00;98821.03;5084320;28;20084;-71
2022/09/05 04:49:32;;;;;;;10.18;4.72;;;;;;;10.97;100.00;98818.41;5083895;28;19905;-71
2022/09/05 04:52:28;;;;;;;11.95;5.13;;;;;;;10.99;100.00;98829.78;5083846;28;20028;-71
2022/09/05 04:55:07;;;;;;;8.45;4.88;;;;;;;11.02;100.00;98829.72;5083783;28;20096;-71
2022/09/05 04:57:47;;;;;;;7.45;4.65;;;;;;;10.98;100.00;98830.66;5083773;28;20032;-71
2022/09/05 05:00:36;;;;;;;8.20;4.47;;;;;;;10.99;100.00;98829.78;5083662;28;20024;-71
2022/09/05 05:03:10;;;;;;;7.85;4.43;;;;;;;11.01;100.00;98840.28;5083709;28;20027;-71
2022/09/05 05:05:59;;;;;;;8.20;4.18;;;;;;;11.05;100.00;98848.13;5083665;28;20031;-71
2022/09/05 05:08:43;;;;;;;8.18;4.28;;;;;;;11.09;100.00;98849.78;5083663;28;20047;-71
2022/09/05 05:11:17;;;;;;;5.82;4.28;;;;;;;11.11;100.00;98834.84;5082319;28;20036;-71
2022/09/05 05:13:48;;;;;;;6.20;4.25;;;;;;;11.19;100.00;98848.72;5083663;28;20078;-71
2022/09/05 05:16:26;;;;;;;9.73;4.65;;;;;;;11.23;100.00;98850.41;5087021;28;20043;-71
2022/09/05 05:18:55;;;;;;;6.55;4.25;;;;;;;11.20;100.00;98850.44;5087479;28;20091;-71
2022/09/05 05:21:24;;;;;;;6.35;4.10;;;;;;;10.99;100.00;98845.59;5087464;28;20051;-71
2022/09/05 05:24:01;;;;;;;8.02;4.68;;;;;;;10.98;100.00;98849.09;5087416;28;20024;-71
2022/09/05 05:26:35;;;;;;;10.32;4.78;;;;;;;11.01;100.00;98853.47;5087309;28;20020;-71
2022/09/05 05:29:21;;;;;;;8.27;4.53;;;;;;;11.08;100.00;98853.34;5087339;28;20055;-71
2022/09/05 05:31:52;;;;;;;9.52;4.78;;;;;;;11.21;100.00;98860.13;5087209;28;20020;-71
2022/09/05 05:34:23;;;;;;;9.50;4.97;;;;;;;11.28;100.00;98864.38;5087145;28;20308;-71
2022/09/05 05:37:03;;;;;;;5.93;4.07;;;;;;;11.73;100.00;98863.50;5087119;28;20028;-71
2022/09/05 05:39:31;;;;;;;7.93;3.75;;;;;;;12.44;100.00;98862.81;5087043;28;20035;-71
2022/09/05 05:42:00;;;;;;;5.78;3.67;;;;;;;12.73;100.00;98863.00;5087057;28;20059;-71
2022/09/05 05:44:29;;;;;;;9.95;3.60;;;;;;;12.95;99.36;98858.91;5086974;28;20055;-71
2022/09/05 05:47:14;;;;;;;7.57;3.00;;;;;;;13.60;96.25;98861.63;5086915;28;20020;-71
2022/09/05 05:50:01;;;;;;;8.15;3.20;;;;;;;14.60;90.83;98857.72;5086920;28;20344;-71
2022/09/05 05:52:51;;;;;;;8.05;2.90;;;;;;;15.10;87.12;98859.59;5086845;28;20320;-71
2022/09/05 05:55:35;;;;;;;4.15;2.78;;;;;;;15.82;83.13;98866.81;5086725;28;20062;-71
2022/09/05 05:58:31;;;;;;;5.30;2.67;;;;;;;16.51;80.37;98865.00;5086793;28;20363;-72
2022/09/05 06:01:22;;;;;;;5.32;2.67;;;;;;;17.44;76.08;98870.03;5086664;28;20027;-72
2022/09/05 06:04:21;;;;;;;10.15;2.60;;;;;;;17.79;74.05;98877.34;5086635;28;20078;-72
2022/09/05 06:07:20;;;;;;;3.85;2.40;;;;;;;18.16;72.65;98877.44;5086610;28;20024;-72
2022/09/05 06:09:54;;;;;;;5.53;2.22;;;;;;;18.69;71.96;98870.47;5086438;28;20095;-72
2022/09/05 06:13:01;;;;;;;6.63;2.53;;;;;;;19.03;69.72;98878.56;5085346;28;20306;-72
2022/09/05 06:15:41;;;;;;;3.90;2.78;;;;;;;19.26;70.63;98883.66;5086382;28;20242;-72
2022/09/05 06:18:35;;;;;;;6.15;2.38;;;;;;;20.28;66.73;98875.56;5086405;28;20032;-72
2022/09/05 06:21:19;;;;;;;7.25;2.45;;;;;;;21.05;63.84;98877.47;5086336;28;20075;-72
2022/09/05 06:24:09;;;;;;;5.45;2.60;;;;;;;20.79;63.86;98878.03;5086301;28;20028;-72
2022/09/05 06:27:04;;;;;;;3.58;2.50;;;;;;;20.62;65.24;98874.56;5084988;28;20024;-72
2022/09/05 06:29:59;;;;;;;7.00;2.65;;;;;;;20.55;64.65;98873.19;5086186;28;20024;-72
2022/09/05 06:33:09;;;;;;;5.80;2.65;;;;;;;22.10;63.19;98885.44;5086093;28;20342;-72
2022/09/05 06:36:08;;;;;;;3.85;2.40;;;;;;;22.36;61.36;98890.91;5024423;28;20030;-72
2022/09/05 06:38:57;;;;;;;8.05;2.75;;;;;;;21.89;61.19;98889.44;5024481;28;20129;-72
2022/09/05 06:41:38;;;;;;;4.18;2.75;;;;;;;22.30;61.85;98887.75;5079599;28;20040;-72
2022/09/05 06:44:36;;;;;;;6.25;2.45;;;;;;;22.80;60.39;98880.06;5085931;28;20029;-72
2022/09/05 06:47:09;;;;;;;4.95;3.08;;;;;;;24.05;57.07;98885.03;5085943;28;20323;-72
2022/09/05 06:49:50;;;;;;;8.38;3.10;;;;;;;23.86;57.30;98885.41;5085872;28;20319;-72
2022/09/05 06:52:58;;;;;;;8.73;2.90;;;;;;;23.28;57.06;98877.72;5085726;28;20031;-72
2022/09/05 06:56:05;;;;;;;7.57;2.83;;;;;;;23.95;57.74;98884.78;5085606;28;20043;-72
2022/09/05 06:58:36;;;;;;;7.80;3.00;;;;;;;24.75;55.51;98885.31;5077756;28;20032;-72
2022/09/05 07:01:04;;;;;;;8.50;2.80;;;;;;;25.80;55.14;98889.06;5085552;28;20016;-72
2022/09/05 07:03:32;;;;;;;6.60;3.30;;;;;;;25.80;53.87;98891.75;5085482;28;20037;-72
2022/09/05 07:06:11;;;;;;;7.05;3.15;;;;;;;26.69;51.92;98885.56;5085492;28;20039;-72
2022/09/05 07:09:01;;;;;;;6.28;3.80;;;;;;;26.81;51.75;98879.19;5085440;28;20020;-72
2022/09/05 07:11:43;;;;;;;7.82;3.15;;;;;;;26.10;52.71;98878.66;5085195;28;20244;-72
2022/09/05 07:14:19;;;;;;;6.43;2.83;;;;;;;27.24;50.90;98889.06;5085301;28;20024;-72
2022/09/05 07:16:58;;;;;;;5.63;2.63;;;;;;;27.21;51.49;98893.88;5085151;28;20024;-72
2022/09/05 07:19:31;;;;;;;4.93;2.97;;;;;;;28.01;50.15;98890.63;5085151;28;20081;-72
2022/09/05 07:22:12;;;;;;;6.93;2.50;;;;;;;27.99;50.71;98898.03;5085165;28;20024;-72
2022/09/05 07:24:43;;;;;;;5.38;2.95;;;;;;;28.56;49.39;98892.97;5085367;28;20201;-72
2022/09/05 07:27:11;;;;;;;5.15;2.95;;;;;;;28.55;49.36;98891.28;5085151;28;20044;-72
2022/09/05 07:29:43;;;;;;;6.50;2.95;;;;;;;28.85;49.05;98890.38;5085018;28;20047;-72
2022/09/05 07:32:16;;;;;;;5.20;3.05;;;;;;;29.20;49.15;98897.09;5084983;28;20028;-73
2022/09/05 07:34:45;;;;;;;4.65;2.80;;;;;;;29.80;48.63;98903.34;5084889;28;20117;-73
2022/09/05 07:37:22;;;;;;;10.55;3.50;;;;;;;29.39;48.27;98903.56;5084456;28;20103;-73
2022/09/05 07:39:59;;;;;;;4.57;2.88;;;;;;;29.09;48.11;98902.66;5083646;28;20030;-73
2022/09/05 07:42:35;;;;;;;6.25;3.00;;;;;;;29.91;47.00;98900.47;5084738;28;20020;-73
2022/09/05 07:45:14;;;;;;;7.38;2.80;;;;;;;30.38;46.43;98899.56;5085003;28;20032;-73
2022/09/05 07:47:49;;;;;;;6.50;2.92;;;;;;;30.75;45.19;98897.78;5084652;28;20320;-73
2022/09/05 07:50:16;;;;;;;5.55;3.22;;;;;;;30.16;45.30;98889.00;5084662;28;20027;-73
2022/09/05 07:52:43;;;;;;;6.85;2.72;;;;;;;30.47;46.07;98894.09;5084560;28;20024;-73
2022/09/05 07:55:30;;;;;;;7.22;2.80;;;;;;;30.27;46.29;98894.28;5084602;28;20032;-73
2022/09/05 07:58:00;;;;;;;7.75;2.83;;;;;;;30.17;47.26;98894.28;5084471;28;20044;-73
2022/09/05 08:00:28;;;;;;;5.85;3.15;;;;;;;30.34;45.20;98892.72;5084371;28;20024;-73
2022/09/05 08:02:54;;;;;;;5.28;3.08;;;;;;;30.56;44.77;98892.38;5084354;28;20235;-73
2022/09/05 08:05:22;;;;;;;4.28;2.75;;;;;;;30.85;46.61;98904.03;5084385;28;20031;-73
2022/09/05 08:07:52;;;;;;;5.65;2.72;;;;;;;31.61;43.28;98903.59;5084337;28;20320;-73
2022/09/05 08:10:32;;;;;;;8.73;3.30;;;;;;;31.35;43.82;98899.91;5084249;28;20032;-73
2022/09/05 08:13:06;;;;;;;7.97;2.70;;;;;;;31.38;44.29;98918.63;5084273;28;20096;-73
2022/09/05 08:15:32;;;;;;;4.00;2.60;;;;;;;32.16;43.40;98920.63;5084196;28;20051;-73
2022/09/05 08:18:06;;;;;;;3.65;2.45;;;;;;;32.13;41.64;98910.91;5084140;28;20032;-73
2022/09/05 08:21:05;;;;;;;10.98;3.30;;;;;;;32.58;42.55;98916.19;5084185;28;20316;-73
2022/09/05 08:23:49;;;;;;;6.00;2.63;;;;;;;32.37;40.52;98900.25;5084119;28;20021;-73
2022/09/05 08:26:19;;;;;;;3.88;2.45;;;;;;;32.52;41.04;98906.81;5084158;28;20048;-73
2022/09/05 08:29:10;;;;;;;5.78;2.70;;;;;;;31.75;41.42;98904.91;5084054;28;20025;-73
2022/09/05 08:31:57;;;;;;;5.45;2.97;;;;;;;31.79;42.32;98901.72;5084065;28;20044;-73
2022/09/05 08:34:42;;;;;;;10.73;2.47;;;;;;;32.61;40.64;98905.84;5084050;28;20021;-73
2022/09/05 08:37:11;;;;;;;6.97;2.63;;;;;;;32.98;38.95;98898.25;5083875;28;20036;-73
2022/09/05 08:39:38;;;;;;;3.42;2.30;;;;;;;33.23;38.44;98906.50;5083968;28;20020;-73
2022/09/05 08:42:06;;;;;;;3.75;2.25;;;;;;;32.90;39.79;98909.09;5084070;28;20044;-73
2022/09/05 08:44:35;;;;;;;4.43;2.80;;;;;;;32.86;38.45;98910.44;5083951;28;20024;-73
2022/09/05 08:47:18;;;;;;;5.95;2.38;;;;;;;32.92;39.26;98904.34;5083853;28;20051;-73
2022/09/05 08:49:52;;;;;;;4.50;2.63;;;;;;;32.42;38.94;98902.47;5084994;28;20066;-73
2022/09/05 08:52:32;;;;;;;5.80;2.47;;;;;;;33.09;38.57;98897.94;5088011;28;20324;-73
2022/09/05 08:55:09;;;;;;;3.53;2.47;;;;;;;33.31;38.77;98901.94;5088000;28;20032;-72
2022/09/05 08:57:44;;;;;;;4.72;2.65;;;;;;;32.56;38.82;98897.31;5088113;28;20036;-73
2022/09/05 09:00:14;;;;;;;9.65;2.75;;;;;;;32.06;40.36;98903.53;5087831;28;20035;-73
2022/09/05 09:02:57;;;;;;;7.82;2.90;;;;;;;32.23;40.13;98903.50;5086959;28;20052;-73
2022/09/05 09:06:05;;;;;;;3.95;2.60;;;;;;;32.66;39.90;98906.22;5086589;28;20021;-73
2022/09/05 09:08:54;;;;;;;4.60;2.83;;;;;;;32.11;40.90;98902.03;5087712;28;20021;-73
2022/09/05 09:11:30;;;;;;;6.40;2.83;;;;;;;32.59;39.98;98907.03;5087529;28;20087;-73
2022/09/05 09:14:30;;;;;;;5.10;2.65;;;;;;;32.76;39.81;98898.78;5086445;28;20027;-73
2022/09/05 09:17:17;;;;;;;3.75;2.58;;;;;;;33.56;38.39;98897.44;5087488;28;20040;-73
2022/09/05 09:19:48;;;;;;;4.63;2.50;;;;;;;33.49;38.96;98880.00;5087454;28;20027;-73
2022/09/05 09:22:26;;;;;;;7.07;3.03;;;;;;;32.64;39.32;98875.53;5087463;28;20031;-73
2022/09/05 09:25:22;;;;;;;5.28;3.00;;;;;;;32.56;39.38;98861.88;5087402;28;20252;-73
2022/09/05 09:28:12;;;;;;;3.50;2.60;;;;;;;33.67;38.59;98867.06;5087352;28;20032;-73
2022/09/05 09:30:42;;;;;;;3.90;2.67;;;;;;;33.82;38.00;98865.38;5087367;28;20050;-73
2022/09/05 09:33:18;;;;;;;5.70;2.88;;;;;;;33.48;38.26;98861.94;5087172;28;20028;-73
2022/09/05 09:35:52;;;;;;;4.15;2.50;;;;;;;33.95;38.24;98855.69;5087120;28;20028;-73
2022/09/05 09:38:39;;;;;;;5.18;2.70;;;;;;;33.67;38.62;98839.78;5087209;28;20042;-73
2022/09/05 09:41:44;;;;;;;4.03;2.50;;;;;;;34.23;37.51;98842.53;5087191;28;20028;-73
2022/09/05 09:44:34;;;;;;;4.05;2.53;;;;;;;34.26;37.90;98850.38;5087007;28;20032;-73
2022/09/05 09:47:07;;;;;;;9.05;2.90;;;;;;;34.14;37.63;98849.88;5086967;28;20320;-73
2022/09/05 09:50:01;;;;;;;5.55;2.70;;;;;;;34.02;37.83;98850.38;5086921;28;20017;-73
2022/09/05 09:52:45;;;;;;;7.38;2.70;;;;;;;33.62;38.19;98844.91;5086954;28;20192;-73
2022/09/05 09:55:45;;;;;;;6.20;2.42;;;;;;;34.14;37.69;98843.56;5086953;28;20216;-73
2022/09/05 09:58:27;;;;;;;7.25;3.22;;;;;;;33.72;37.78;98842.84;5086932;28;20083;-73
2022/09/05 10:01:32;;;;;;;3.70;2.70;;;;;;;33.83;37.79;98848.84;5086410;28;20028;-73
2022/09/05 10:04:18;;;;;;;4.15;2.50;;;;;;;33.79;36.12;98849.34;5086694;28;20028;-73
2022/09/05 10:06:49;;;;;;;2.97;2.03;;;;;;;32.92;35.73;98833.44;5086668;28;20092;-73
2022/09/05 10:09:17;;;;;;;;;;;;;;;33.95;36.61;98842.03;5086837;28;20036;-73
2022/09/05 10:12:12;;;;;;;4.70;2.60;;;;;;;33.59;36.84;98831.59;5086542;28;19904;-73
2022/09/05 10:14:56;;;;;;;2.42;2.05;;;;;;;33.84;36.87;98834.13;5086499;28;20028;-73
2022/09/05 10:17:26;;;;;;;4.18;2.50;;;;;;;33.72;36.40;98826.47;5086346;28;20031;-73
2022/09/05 10:20:19;;;;;;;7.68;2.80;;;;;;;33.10;37.63;98825.97;5086374;28;20096;-73
2022/09/05 10:23:04;;;;;;;4.05;2.42;;;;;;;33.02;36.33;98817.78;5086359;28;20020;-73
2022/09/05 10:26:03;;;;;;;3.47;2.50;;;;;;;32.99;37.95;98817.25;5086286;28;20046;-73
2022/09/05 10:28:58;;;;;;;3.80;2.40;;;;;;;32.61;36.57;98807.72;5086187;28;20044;-73
2022/09/05 10:31:55;;;;;;;7.68;2.38;;;;;;;32.40;37.68;98804.53;5077950;28;20224;-73
2022/09/05 10:34:24;;;;;;;4.95;2.00;;;;;;;33.00;37.03;98813.53;5086143;28;20048;-73
2022/09/05 10:36:57;;;;;;;4.35;2.15;;;;;;;33.19;36.21;98804.19;5086036;28;20028;-73
2022/09/05 10:39:27;;;;;;;4.13;2.25;;;;;;;33.18;35.73;98799.75;5086276;28;20020;-73
2022/09/05 10:41:56;;;;;;;4.85;2.15;;;;;;;33.94;35.13;98803.97;5085955;28;20088;-73
2022/09/05 10:44:45;;;;;;;2.58;1.95;;;;;;;34.47;35.14;98804.22;5085907;28;20021;-73
2022/09/05 10:47:43;;;;;;;5.00;2.50;;;;;;;34.15;34.32;98790.59;5085928;28;20044;-73
2022/09/05 10:50:29;;;;;;;3.25;1.80;;;;;;;34.21;34.51;98784.44;5085879;28;20036;-73
2022/09/05 10:53:04;;;;;;;4.70;2.22;;;;;;;34.48;34.42;98786.81;5085765;28;20044;-73
2022/09/05 10:55:50;;;;;;;2.78;2.00;;;;;;;34.32;34.73;98782.19;5085626;28;20020;-73
2022/09/05 10:59:00;;;;;;;6.05;2.53;;;;;;;34.09;33.94;98766.69;5085668;28;20324;-73
2022/09/05 11:01:40;;;;;;;4.60;2.25;;;;;;;33.84;34.82;98770.47;5085390;28;20062;-73
2022/09/05 11:04:33;;;;;;;5.07;2.28;;;;;;;33.68;35.57;98774.06;5085580;28;20062;-73
2022/09/05 11:07:27;;;;;;;4.53;2.20;;;;;;;32.96;35.88;98771.22;5085432;28;20320;-73
2022/09/05 11:10:05;;;;;;;4.63;2.00;;;;;;;33.29;35.92;98772.13;5085283;28;20045;-73
2022/09/05 11:12:57;;;;;;;4.50;1.83;;;;;;;32.88;35.74;98761.16;5084691;28;20224;-73
2022/09/05 11:15:53;;;;;;;3.38;2.40;;;;;;;32.81;36.34;98757.34;5085231;28;20024;-73
2022/09/05 11:18:37;;;;;;;4.95;2.40;;;;;;;32.28;35.67;98754.03;5072667;28;20039;-73
2022/09/05 11:21:11;;;;;;;3.83;1.98;;;;;;;31.71;36.58;98743.78;5085223;28;20038;-73
2022/09/05 11:23:44;;;;;;;3.50;2.10;;;;;;;31.94;36.90;98735.94;5085061;28;20087;-73
2022/09/05 11:26:28;;;;;;;3.50;2.25;;;;;;;32.14;37.19;98732.84;5085074;28;20316;-73
2022/09/05 11:29:04;;;;;;;4.55;2.40;;;;;;;31.59;37.17;98728.72;5085077;28;20027;-73
2022/09/05 11:32:19;;;;;;;3.97;2.40;;;;;;;31.38;38.07;98727.34;5085238;28;20030;-73
2022/09/05 11:35:20;;;;;;;6.97;2.42;;;;;;;31.10;38.87;98729.28;5066516;28;20032;-73
2022/09/05 11:37:58;;;;;;;4.88;2.08;;;;;;;30.93;38.73;98716.53;5084875;28;20254;-73
2022/09/05 11:40:47;;;;;;;5.20;2.40;;;;;;;31.13;39.21;98728.97;5084820;28;20057;-73
2022/09/05 11:43:57;;;;;;;3.45;2.22;;;;;;;30.90;39.50;98722.25;5084790;28;20024;-73
2022/09/05 11:46:48;;;;;;;6.43;2.10;;;;;;;31.47;39.27;98716.38;5084968;28;20224;-73
2022/09/05 11:49:33;;;;;;;9.10;2.25;;;;;;;31.16;38.13;98713.19;5084683;28;20020;-73
2022/09/05 11:52:20;;;;;;;3.20;2.17;;;;;;;30.62;39.24;98713.28;5084066;28;20254;-73
2022/09/05 11:55:18;;;;;;;3.65;2.22;;;;;;;30.33;40.34;98700.88;5084597;28;20054;-73
2022/09/05 11:58:29;;;;;;;3.28;2.13;;;;;;;30.72;40.83;98714.06;5084397;28;20051;-72
2022/09/05 12:01:06;;;;;;;3.47;2.30;;;;;;;30.45;40.82;98710.53;5083171;28;20027;-72
2022/09/05 12:03:54;;;;;;;3.40;2.28;;;;;;;30.35;40.44;98701.56;5083256;28;20016;-72
2022/09/05 12:06:57;;;;;;;4.13;2.47;;;;;;;30.03;42.15;98687.56;5084432;28;20247;-72
2022/09/05 12:10:01;;;;;;;3.03;2.30;;;;;;;30.41;41.10;98687.41;5084142;28;20101;-72
2022/09/05 12:12:53;;;;;;;4.88;2.30;;;;;;;30.14;40.66;98681.91;5084296;28;20103;-72
2022/09/05 12:15:23;;;;;;;6.55;2.25;;;;;;;30.03;40.55;98688.44;5084259;28;20016;-72
2022/09/05 12:18:39;;;;;;;5.93;2.13;;;;;;;29.83;41.23;98683.22;5084200;28;20050;-72
2022/09/05 12:21:25;;;;;;;4.20;2.30;;;;;;;29.82;41.39;98681.50;5084184;28;20083;-72
2022/09/05 12:23:59;;;;;;;2.60;1.98;;;;;;;30.00;40.91;98672.44;5084162;28;20361;-72
2022/09/05 12:26:33;;;;;;;4.75;2.47;;;;;;;29.92;41.71;98679.59;5084358;28;20039;-72
2022/09/05 12:29:22;;;;;;;5.18;2.50;;;;;;;29.91;41.79;98664.31;5084114;28;20083;-72
2022/09/05 12:31:52;;;;;;;3.78;2.33;;;;;;;29.81;41.43;98666.22;5083691;28;20048;-72
2022/09/05 12:34:48;;;;;;;5.20;2.17;;;;;;;29.49;42.23;98661.16;5084054;28;20024;-72
2022/09/05 12:37:17;;;;;;;4.50;2.10;;;;;;;29.55;41.64;98665.13;5083963;28;20219;-72
2022/09/05 12:39:52;;;;;;;3.90;2.25;;;;;;;29.61;41.49;98675.41;5084011;28;20258;-72
2022/09/05 12:42:29;;;;;;;5.13;2.25;;;;;;;29.55;41.24;98662.44;5083976;28;20215;-72